sensor_id;sensor_type;location;lat;lon;timestamp;pressure;altitude;pressure_sealevel;temperature;humidity
50368;BME280;36281;34.132;-118.018;2023-04-23T00:01:26;99349.00;;;30.98;27.17
50368;BME280;36281;34.132;-118.018;2023-04-23T00:03:57;99348.81;;;30.91;26.94
50368;BME280;36281;34.132;-118.018;2023-04-23T00:06:26;99345.22;;;30.87;27.07
50368;BME280;36281;34.132;-118.018;2023-04-23T00:08:56;99341.56;;;30.79;27.18
50368;BME280;36281;34.132;-118.018;2023-04-23T00:11:28;99349.53;;;30.69;26.66
50368;BME280;36281;34.132;-118.018;2023-04-23T00:13:59;99343.53;;;30.63;26.84
50368;BME280;36281;34.132;-118.018;2023-04-23T00:16:29;99344.19;;;30.56;26.67
50368;BME280;36281;34.132;-118.018;2023-04-23T00:18:58;99342.53;;;30.52;26.44
50368;BME280;36281;34.132;-118.018;2023-04-23T00:21:27;99341.66;;;30.48;27.20
50368;BME280;36281;34.132;-118.018;2023-04-23T00:23:56;99338.78;;;30.41;27.50
50368;BME280;36281;34.132;-118.018;2023-04-23T00:26:25;99334.16;;;30.25;27.96
50368;BME280;36281;34.132;-118.018;2023-04-23T00:28:54;99337.25;;;30.24;28.25
50368;BME280;36281;34.132;-118.018;2023-04-23T00:31:25;99337.06;;;30.17;27.53
50368;BME280;36281;34.132;-118.018;2023-04-23T00:33:54;99337.66;;;30.10;27.71
50368;BME280;36281;34.132;-118.018;2023-04-23T00:36:23;99332.75;;;30.00;28.06
50368;BME280;36281;34.132;-118.018;2023-04-23T00:38:53;99325.81;;;29.86;27.77
50368;BME280;36281;34.132;-118.018;2023-04-23T00:41:22;99340.34;;;29.91;27.92
50368;BME280;36281;34.132;-118.018;2023-04-23T00:43:52;99343.25;;;29.82;27.72
50368;BME280;36281;34.132;-118.018;2023-04-23T00:46:21;99333.22;;;29.70;27.63
50368;BME280;36281;34.132;-118.018;2023-04-23T00:48:53;99338.56;;;29.67;27.90
50368;BME280;36281;34.132;-118.018;2023-04-23T00:51:23;99326.13;;;29.53;27.97
50368;BME280;36281;34.132;-118.018;2023-04-23T00:53:52;99335.72;;;29.47;27.49
50368;BME280;36281;34.132;-118.018;2023-04-23T00:56:21;99337.13;;;29.41;27.36
50368;BME280;36281;34.132;-118.018;2023-04-23T00:58:51;99326.81;;;29.34;26.98
50368;BME280;36281;34.132;-118.018;2023-04-23T01:01:21;99324.25;;;29.26;27.41
50368;BME280;36281;34.132;-118.018;2023-04-23T01:03:53;99331.81;;;29.17;27.42
50368;BME280;36281;34.132;-118.018;2023-04-23T01:06:24;99333.53;;;29.09;27.57
50368;BME280;36281;34.132;-118.018;2023-04-23T01:08:56;99332.19;;;29.03;27.86
50368;BME280;36281;34.132;-118.018;2023-04-23T01:11:25;99333.94;;;28.95;27.34
50368;BME280;36281;34.132;-118.018;2023-04-23T01:13:55;99332.56;;;28.89;27.75
50368;BME280;36281;34.132;-118.018;2023-04-23T01:16:26;99335.88;;;28.82;27.86
50368;BME280;36281;34.132;-118.018;2023-04-23T01:18:56;99327.84;;;28.74;27.99
50368;BME280;36281;34.132;-118.018;2023-04-23T01:21:25;99330.03;;;28.68;28.64
50368;BME280;36281;34.132;-118.018;2023-04-23T01:23:56;99325.84;;;28.58;28.22
50368;BME280;36281;34.132;-118.018;2023-04-23T01:26:26;99329.84;;;28.49;28.56
50368;BME280;36281;34.132;-118.018;2023-04-23T01:28:55;99325.78;;;28.43;28.17
50368;BME280;36281;34.132;-118.018;2023-04-23T01:31:24;99318.22;;;28.36;28.67
50368;BME280;36281;34.132;-118.018;2023-04-23T01:33:54;99331.13;;;28.27;28.91
50368;BME280;36281;34.132;-118.018;2023-04-23T01:36:23;99326.16;;;28.17;28.29
50368;BME280;36281;34.132;-118.018;2023-04-23T01:38:52;99319.66;;;28.09;28.08
50368;BME280;36281;34.132;-118.018;2023-04-23T01:41:23;99311.28;;;28.02;28.72
50368;BME280;36281;34.132;-118.018;2023-04-23T01:43:52;99325.00;;;27.93;29.01
50368;BME280;36281;34.132;-118.018;2023-04-23T01:46:22;99322.41;;;27.85;29.22
50368;BME280;36281;34.132;-118.018;2023-04-23T01:48:52;99316.75;;;27.77;28.87
50368;BME280;36281;34.132;-118.018;2023-04-23T01:51:21;99310.56;;;27.68;28.49
50368;BME280;36281;34.132;-118.018;2023-04-23T01:53:53;99312.16;;;27.57;28.57
50368;BME280;36281;34.132;-118.018;2023-04-23T01:56:26;99318.63;;;27.52;28.97
50368;BME280;36281;34.132;-118.018;2023-04-23T01:58:55;99312.81;;;27.42;29.15
50368;BME280;36281;34.132;-118.018;2023-04-23T02:01:24;99323.56;;;27.38;29.41
50368;BME280;36281;34.132;-118.018;2023-04-23T02:03:53;99306.44;;;27.25;29.38
50368;BME280;36281;34.132;-118.018;2023-04-23T02:06:23;99328.06;;;27.22;29.72
50368;BME280;36281;34.132;-118.018;2023-04-23T02:08:52;99318.06;;;27.14;29.91
50368;BME280;36281;34.132;-118.018;2023-04-23T02:11:21;99321.97;;;27.04;30.45
50368;BME280;36281;34.132;-118.018;2023-04-23T02:13:51;99327.59;;;26.99;30.56
50368;BME280;36281;34.132;-118.018;2023-04-23T02:16:20;99331.53;;;26.89;31.32
50368;BME280;36281;34.132;-118.018;2023-04-23T02:18:52;99324.25;;;26.81;31.54
50368;BME280;36281;34.132;-118.018;2023-04-23T02:21:22;99325.47;;;26.71;31.93
50368;BME280;36281;34.132;-118.018;2023-04-23T02:23:52;99337.53;;;26.62;32.11
50368;BME280;36281;34.132;-118.018;2023-04-23T02:26:21;99337.78;;;26.48;31.67
50368;BME280;36281;34.132;-118.018;2023-04-23T02:28:52;99335.56;;;26.41;32.90
50368;BME280;36281;34.132;-118.018;2023-04-23T02:31:21;99340.56;;;26.30;32.09
50368;BME280;36281;34.132;-118.018;2023-04-23T02:33:50;99332.06;;;26.11;32.19
50368;BME280;36281;34.132;-118.018;2023-04-23T02:36:19;99349.94;;;26.12;32.57
50368;BME280;36281;34.132;-118.018;2023-04-23T02:38:48;99356.19;;;26.04;32.72
50368;BME280;36281;34.132;-118.018;2023-04-23T02:41:18;99361.19;;;25.93;33.00
50368;BME280;36281;34.132;-118.018;2023-04-23T02:43:47;99362.00;;;25.85;32.16
50368;BME280;36281;34.132;-118.018;2023-04-23T02:46:18;99360.94;;;25.77;33.17
50368;BME280;36281;34.132;-118.018;2023-04-23T02:48:47;99363.66;;;25.69;33.55
50368;BME280;36281;34.132;-118.018;2023-04-23T02:51:16;99358.56;;;25.59;34.02
50368;BME280;36281;34.132;-118.018;2023-04-23T02:53:45;99357.50;;;25.51;33.85
50368;BME280;36281;34.132;-118.018;2023-04-23T02:56:14;99353.56;;;25.31;33.83
50368;BME280;36281;34.132;-118.018;2023-04-23T02:58:43;99359.59;;;25.28;33.31
50368;BME280;36281;34.132;-118.018;2023-04-23T03:01:12;99362.50;;;25.23;33.69
50368;BME280;36281;34.132;-118.018;2023-04-23T03:03:43;99367.28;;;25.17;34.87
50368;BME280;36281;34.132;-118.018;2023-04-23T03:06:13;99347.31;;;24.96;35.33
50368;BME280;36281;34.132;-118.018;2023-04-23T03:08:42;99376.16;;;25.00;35.58
50368;BME280;36281;34.132;-118.018;2023-04-23T03:11:11;99379.53;;;24.89;35.34
50368;BME280;36281;34.132;-118.018;2023-04-23T03:13:40;99352.09;;;24.64;35.38
50368;BME280;36281;34.132;-118.018;2023-04-23T03:16:09;99372.03;;;24.68;35.26
50368;BME280;36281;34.132;-118.018;2023-04-23T03:18:38;99379.34;;;24.59;35.63
50368;BME280;36281;34.132;-118.018;2023-04-23T03:21:09;99378.22;;;24.52;35.36
50368;BME280;36281;34.132;-118.018;2023-04-23T03:23:38;99379.31;;;24.42;34.71
50368;BME280;36281;34.132;-118.018;2023-04-23T03:26:07;99368.59;;;24.28;36.05
50368;BME280;36281;34.132;-118.018;2023-04-23T03:28:36;99381.78;;;24.30;35.83
50368;BME280;36281;34.132;-118.018;2023-04-23T03:31:05;99388.16;;;24.25;36.42
50368;BME280;36281;34.132;-118.018;2023-04-23T03:33:34;99383.03;;;24.15;37.05
50368;BME280;36281;34.132;-118.018;2023-04-23T03:36:04;99389.38;;;24.10;36.70
50368;BME280;36281;34.132;-118.018;2023-04-23T03:38:35;99393.94;;;24.01;36.60
50368;BME280;36281;34.132;-118.018;2023-04-23T03:41:04;99405.22;;;23.94;37.51
50368;BME280;36281;34.132;-118.018;2023-04-23T03:43:33;99397.84;;;23.86;37.52
50368;BME280;36281;34.132;-118.018;2023-04-23T03:46:02;99405.31;;;23.81;38.12
50368;BME280;36281;34.132;-118.018;2023-04-23T03:48:31;99404.16;;;23.73;38.85
50368;BME280;36281;34.132;-118.018;2023-04-23T03:51:00;99407.28;;;23.66;39.13
50368;BME280;36281;34.132;-118.018;2023-04-23T03:53:29;99408.03;;;23.58;38.63
50368;BME280;36281;34.132;-118.018;2023-04-23T03:56:00;99408.28;;;23.48;38.73
50368;BME280;36281;34.132;-118.018;2023-04-23T03:58:29;99413.31;;;23.41;38.79
50368;BME280;36281;34.132;-118.018;2023-04-23T04:00:58;99412.44;;;23.32;39.53
50368;BME280;36281;34.132;-118.018;2023-04-23T04:03:27;99414.19;;;23.28;39.55
50368;BME280;36281;34.132;-118.018;2023-04-23T04:05:57;99419.72;;;23.23;40.00
50368;BME280;36281;34.132;-118.018;2023-04-23T04:08:26;99415.81;;;23.15;39.94
50368;BME280;36281;34.132;-118.018;2023-04-23T04:10:57;99410.06;;;23.08;40.21
50368;BME280;36281;34.132;-118.018;2023-04-23T04:13:27;99421.16;;;23.06;40.74
50368;BME280;36281;34.132;-118.018;2023-04-23T04:15:56;99420.78;;;22.99;40.90
50368;BME280;36281;34.132;-118.018;2023-04-23T04:18:25;99424.19;;;22.91;41.19
50368;BME280;36281;34.132;-118.018;2023-04-23T04:20:54;99421.09;;;22.84;40.46
50368;BME280;36281;34.132;-118.018;2023-04-23T04:23:24;99426.09;;;22.77;41.00
50368;BME280;36281;34.132;-118.018;2023-04-23T04:25:53;99421.91;;;22.70;41.06
50368;BME280;36281;34.132;-118.018;2023-04-23T04:28:23;99431.22;;;22.64;41.64
50368;BME280;36281;34.132;-118.018;2023-04-23T04:30:54;99435.13;;;22.58;41.73
50368;BME280;36281;34.132;-118.018;2023-04-23T04:33:25;99440.91;;;22.52;41.96
50368;BME280;36281;34.132;-118.018;2023-04-23T04:35:54;99432.75;;;22.43;42.01
50368;BME280;36281;34.132;-118.018;2023-04-23T04:38:24;99436.34;;;22.38;42.51
50368;BME280;36281;34.132;-118.018;2023-04-23T04:40:54;99441.63;;;22.30;42.60
50368;BME280;36281;34.132;-118.018;2023-04-23T04:43:27;99445.53;;;22.24;42.56
50368;BME280;36281;34.132;-118.018;2023-04-23T04:45:58;99440.81;;;22.15;43.21
50368;BME280;36281;34.132;-118.018;2023-04-23T04:48:27;99440.09;;;22.10;43.55
50368;BME280;36281;34.132;-118.018;2023-04-23T04:50:57;99448.34;;;22.00;43.43
50368;BME280;36281;34.132;-118.018;2023-04-23T04:53:26;99441.25;;;21.90;44.12
50368;BME280;36281;34.132;-118.018;2023-04-23T04:55:54;99444.13;;;21.80;44.97
50368;BME280;36281;34.132;-118.018;2023-04-23T04:58:24;99443.19;;;21.71;45.83
50368;BME280;36281;34.132;-118.018;2023-04-23T05:00:53;99435.28;;;21.60;46.38
50368;BME280;36281;34.132;-118.018;2023-04-23T05:03:25;99438.06;;;21.55;46.27
50368;BME280;36281;34.132;-118.018;2023-04-23T05:05:54;99438.44;;;21.49;46.12
50368;BME280;36281;34.132;-118.018;2023-04-23T05:08:24;99437.22;;;21.41;46.54
50368;BME280;36281;34.132;-118.018;2023-04-23T05:10:53;99438.69;;;21.33;47.39
50368;BME280;36281;34.132;-118.018;2023-04-23T05:13:22;99439.31;;;21.25;47.67
50368;BME280;36281;34.132;-118.018;2023-04-23T05:15:51;99439.09;;;21.22;48.00
50368;BME280;36281;34.132;-118.018;2023-04-23T05:18:20;99436.06;;;21.09;47.96
50368;BME280;36281;34.132;-118.018;2023-04-23T05:20:51;99430.94;;;21.08;48.15
50368;BME280;36281;34.132;-118.018;2023-04-23T05:23:20;99428.13;;;20.99;48.37
50368;BME280;36281;34.132;-118.018;2023-04-23T05:25:50;99436.84;;;20.91;48.15
50368;BME280;36281;34.132;-118.018;2023-04-23T05:28:21;99434.72;;;20.88;47.86
50368;BME280;36281;34.132;-118.018;2023-04-23T05:30:50;99442.59;;;20.84;48.89
50368;BME280;36281;34.132;-118.018;2023-04-23T05:33:20;99441.31;;;20.77;49.11
50368;BME280;36281;34.132;-118.018;2023-04-23T05:35:51;99433.84;;;20.74;48.82
50368;BME280;36281;34.132;-118.018;2023-04-23T05:38:20;99433.31;;;20.72;48.61
50368;BME280;36281;34.132;-118.018;2023-04-23T05:40:49;99432.81;;;20.70;48.44
50368;BME280;36281;34.132;-118.018;2023-04-23T05:43:18;99429.66;;;20.62;48.86
50368;BME280;36281;34.132;-118.018;2023-04-23T05:45:48;99432.66;;;20.61;48.77
50368;BME280;36281;34.132;-118.018;2023-04-23T05:48:17;99425.75;;;20.55;48.76
50368;BME280;36281;34.132;-118.018;2023-04-23T05:50:46;99427.44;;;20.46;49.51
50368;BME280;36281;34.132;-118.018;2023-04-23T05:53:18;99425.31;;;20.43;49.62
50368;BME280;36281;34.132;-118.018;2023-04-23T05:55:47;99429.94;;;20.37;49.94
50368;BME280;36281;34.132;-118.018;2023-04-23T05:58:16;99428.34;;;20.36;49.72
50368;BME280;36281;34.132;-118.018;2023-04-23T06:00:46;99432.41;;;20.33;49.97
50368;BME280;36281;34.132;-118.018;2023-04-23T06:03:15;99423.16;;;20.21;50.12
50368;BME280;36281;34.132;-118.018;2023-04-23T06:05:45;99432.25;;;20.25;50.37
50368;BME280;36281;34.132;-118.018;2023-04-23T06:08:14;99422.13;;;20.17;50.58
50368;BME280;36281;34.132;-118.018;2023-04-23T06:10:45;99434.25;;;20.14;51.31
50368;BME280;36281;34.132;-118.018;2023-04-23T06:13:15;99427.53;;;20.11;51.80
50368;BME280;36281;34.132;-118.018;2023-04-23T06:15:44;99419.03;;;20.04;52.00
50368;BME280;36281;34.132;-118.018;2023-04-23T06:18:13;99423.91;;;19.97;52.80
50368;BME280;36281;34.132;-118.018;2023-04-23T06:20:42;99418.03;;;19.95;53.02
50368;BME280;36281;34.132;-118.018;2023-04-23T06:23:12;99416.72;;;19.93;53.35
50368;BME280;36281;34.132;-118.018;2023-04-23T06:25:41;99404.41;;;19.86;53.92
50368;BME280;36281;34.132;-118.018;2023-04-23T06:28:12;99411.72;;;19.81;54.13
50368;BME280;36281;34.132;-118.018;2023-04-23T06:30:41;99411.72;;;19.81;54.22
50368;BME280;36281;34.132;-118.018;2023-04-23T06:33:10;99411.47;;;19.77;54.57
50368;BME280;36281;34.132;-118.018;2023-04-23T06:35:40;99404.28;;;19.73;55.22
50368;BME280;36281;34.132;-118.018;2023-04-23T06:38:09;99413.75;;;19.65;55.22
50368;BME280;36281;34.132;-118.018;2023-04-23T06:40:38;99409.22;;;19.60;55.57
50368;BME280;36281;34.132;-118.018;2023-04-23T06:43:07;99409.22;;;19.60;55.56
50368;BME280;36281;34.132;-118.018;2023-04-23T06:45:38;99416.72;;;19.58;56.02
50368;BME280;36281;34.132;-118.018;2023-04-23T06:48:07;99411.94;;;19.55;56.36
50368;BME280;36281;34.132;-118.018;2023-04-23T06:50:37;99418.66;;;19.53;56.44
50368;BME280;36281;34.132;-118.018;2023-04-23T06:53:07;99422.19;;;19.48;56.79
50368;BME280;36281;34.132;-118.018;2023-04-23T06:55:36;99418.44;;;19.44;56.76
50368;BME280;36281;34.132;-118.018;2023-04-23T06:58:05;99421.16;;;19.39;56.88
50368;BME280;36281;34.132;-118.018;2023-04-23T07:00:39;99419.06;;;19.36;57.22
50368;BME280;36281;34.132;-118.018;2023-04-23T07:03:08;99418.56;;;19.29;57.66
50368;BME280;36281;34.132;-118.018;2023-04-23T07:05:37;99417.53;;;19.25;58.21
50368;BME280;36281;34.132;-118.018;2023-04-23T07:08:06;99414.31;;;19.23;58.10
50368;BME280;36281;34.132;-118.018;2023-04-23T07:10:35;99416.78;;;19.14;58.12
50368;BME280;36281;34.132;-118.018;2023-04-23T07:13:04;99413.13;;;19.05;57.64
50368;BME280;36281;34.132;-118.018;2023-04-23T07:18:05;99414.72;;;19.06;58.55
50368;BME280;36281;34.132;-118.018;2023-04-23T07:20:34;99419.00;;;19.07;59.05
50368;BME280;36281;34.132;-118.018;2023-04-23T07:23:04;99415.84;;;19.00;59.48
50368;BME280;36281;34.132;-118.018;2023-04-23T07:25:33;99411.25;;;19.00;59.85
50368;BME280;36281;34.132;-118.018;2023-04-23T07:28:02;99410.47;;;19.00;59.48
50368;BME280;36281;34.132;-118.018;2023-04-23T07:30:31;99407.25;;;18.98;59.28
50368;BME280;36281;34.132;-118.018;2023-04-23T07:33:00;99408.63;;;18.95;59.11
50368;BME280;36281;34.132;-118.018;2023-04-23T07:35:31;99393.88;;;18.88;59.11
50368;BME280;36281;34.132;-118.018;2023-04-23T07:38:00;99397.91;;;18.90;58.99
50368;BME280;36281;34.132;-118.018;2023-04-23T07:40:29;99398.44;;;18.87;59.35
50368;BME280;36281;34.132;-118.018;2023-04-23T07:42:58;99393.38;;;18.85;59.12
50368;BME280;36281;34.132;-118.018;2023-04-23T07:45:27;99393.13;;;18.82;59.42
50368;BME280;36281;34.132;-118.018;2023-04-23T07:47:56;99397.16;;;18.79;59.73
50368;BME280;36281;34.132;-118.018;2023-04-23T07:50:26;99395.03;;;18.76;60.21
50368;BME280;36281;34.132;-118.018;2023-04-23T07:52:57;99398.00;;;18.75;59.96
50368;BME280;36281;34.132;-118.018;2023-04-23T07:55:26;99399.34;;;18.72;60.29
50368;BME280;36281;34.132;-118.018;2023-04-23T07:57:55;99393.72;;;18.69;60.58
50368;BME280;36281;34.132;-118.018;2023-04-23T08:00:24;99395.84;;;18.67;60.65
50368;BME280;36281;34.132;-118.018;2023-04-23T08:02:54;99391.84;;;18.64;61.22
50368;BME280;36281;34.132;-118.018;2023-04-23T08:05:23;99396.41;;;18.58;61.83
50368;BME280;36281;34.132;-118.018;2023-04-23T08:07:54;99400.22;;;18.52;61.97
50368;BME280;36281;34.132;-118.018;2023-04-23T08:10:24;99399.16;;;18.43;62.26
50368;BME280;36281;34.132;-118.018;2023-04-23T08:12:54;99391.16;;;18.38;62.62
50368;BME280;36281;34.132;-118.018;2023-04-23T08:15:23;99395.44;;;18.39;62.75
50368;BME280;36281;34.132;-118.018;2023-04-23T08:17:52;99395.19;;;18.41;62.76
50368;BME280;36281;34.132;-118.018;2023-04-23T08:20:21;99401.34;;;18.41;62.73
50368;BME280;36281;34.132;-118.018;2023-04-23T08:22:51;99395.44;;;18.39;62.93
50368;BME280;36281;34.132;-118.018;2023-04-23T08:25:21;99397.31;;;18.39;62.64
50368;BME280;36281;34.132;-118.018;2023-04-23T08:27:51;99396.78;;;18.37;62.60
50368;BME280;36281;34.132;-118.018;2023-04-23T08:30:21;99377.53;;;18.24;62.93
50368;BME280;36281;34.132;-118.018;2023-04-23T08:32:51;99389.31;;;18.28;63.42
50368;BME280;36281;34.132;-118.018;2023-04-23T08:35:23;99386.38;;;18.25;63.96
50368;BME280;36281;34.132;-118.018;2023-04-23T08:37:53;99379.97;;;18.21;64.20
50368;BME280;36281;34.132;-118.018;2023-04-23T08:40:22;99379.44;;;18.19;64.51
50368;BME280;36281;34.132;-118.018;2023-04-23T08:42:56;99369.28;;;18.11;64.55
50368;BME280;36281;34.132;-118.018;2023-04-23T08:45:25;99378.09;;;18.16;64.61
50368;BME280;36281;34.132;-118.018;2023-04-23T08:47:58;99383.19;;;18.18;64.68
50368;BME280;36281;34.132;-118.018;2023-04-23T08:50:29;99376.22;;;18.17;64.43
50368;BME280;36281;34.132;-118.018;2023-04-23T08:52:58;99364.97;;;18.15;64.26
50368;BME280;36281;34.132;-118.018;2023-04-23T08:55:28;99370.59;;;18.13;64.35
50368;BME280;36281;34.132;-118.018;2023-04-23T08:57:59;99369.28;;;18.11;64.48
50368;BME280;36281;34.132;-118.018;2023-04-23T09:00:30;99365.56;;;18.01;65.22
50368;BME280;36281;34.132;-118.018;2023-04-23T09:03:00;99369.03;;;18.02;65.63
50368;BME280;36281;34.132;-118.018;2023-04-23T09:05:29;99365.00;;;17.99;66.02
50368;BME280;36281;34.132;-118.018;2023-04-23T09:07:59;99366.88;;;17.99;65.72
50368;BME280;36281;34.132;-118.018;2023-04-23T09:10:28;99365.03;;;17.94;65.63
50368;BME280;36281;34.132;-118.018;2023-04-23T09:12:59;99360.75;;;17.93;65.63
50368;BME280;36281;34.132;-118.018;2023-04-23T09:15:28;99366.38;;;17.92;65.59
50368;BME280;36281;34.132;-118.018;2023-04-23T09:17:59;99352.75;;;17.83;66.05
50368;BME280;36281;34.132;-118.018;2023-04-23T09:20:28;99368.53;;;17.85;65.97
50368;BME280;36281;34.132;-118.018;2023-04-23T09:22:57;99364.25;;;17.78;66.63
50368;BME280;36281;34.132;-118.018;2023-04-23T09:25:26;99364.28;;;17.73;67.00
50368;BME280;36281;34.132;-118.018;2023-04-23T09:27:59;99370.19;;;17.75;66.95
50368;BME280;36281;34.132;-118.018;2023-04-23T09:30:29;99368.53;;;17.69;66.87
50368;BME280;36281;34.132;-118.018;2023-04-23T09:32:58;99374.97;;;17.68;67.09
50368;BME280;36281;34.132;-118.018;2023-04-23T09:35:28;99365.34;;;17.67;67.42
50368;BME280;36281;34.132;-118.018;2023-04-23T09:37:57;99362.38;;;17.64;67.67
50368;BME280;36281;34.132;-118.018;2023-04-23T09:40:26;99350.59;;;17.54;67.43
50368;BME280;36281;34.132;-118.018;2023-04-23T09:42:55;99351.41;;;17.55;67.65
50368;BME280;36281;34.132;-118.018;2023-04-23T09:45:28;99358.66;;;17.49;67.90
50368;BME280;36281;34.132;-118.018;2023-04-23T09:47:57;99344.19;;;17.40;68.03
50368;BME280;36281;34.132;-118.018;2023-04-23T09:50:32;99358.94;;;17.48;68.59
50368;BME280;36281;34.132;-118.018;2023-04-23T09:53:01;99354.91;;;17.40;68.93
50368;BME280;36281;34.132;-118.018;2023-04-23T09:55:31;99352.50;;;17.34;69.17
50368;BME280;36281;34.132;-118.018;2023-04-23T09:58:10;99351.72;;;17.33;69.55
50368;BME280;36281;34.132;-118.018;2023-04-23T10:00:41;99346.63;;;17.26;69.52
50368;BME280;36281;34.132;-118.018;2023-04-23T10:03:11;99345.84;;;17.26;69.06
50368;BME280;36281;34.132;-118.018;2023-04-23T10:05:41;99314.78;;;17.04;69.10
50368;BME280;36281;34.132;-118.018;2023-04-23T10:08:13;99346.09;;;17.19;68.99
50368;BME280;36281;34.132;-118.018;2023-04-23T10:10:44;99343.69;;;17.18;69.29
50368;BME280;36281;34.132;-118.018;2023-04-23T10:13:29;99349.56;;;17.15;69.48
50368;BME280;36281;34.132;-118.018;2023-04-23T10:16:01;99350.09;;;17.12;69.79
50368;BME280;36281;34.132;-118.018;2023-04-23T10:18:50;99349.56;;;17.10;69.97
50368;BME280;36281;34.132;-118.018;2023-04-23T10:21:24;99349.56;;;17.04;70.19
50368;BME280;36281;34.132;-118.018;2023-04-23T10:24:13;99346.63;;;16.96;70.32
50368;BME280;36281;34.132;-118.018;2023-04-23T10:26:43;99358.13;;;16.96;70.61
50368;BME280;36281;34.132;-118.018;2023-04-23T10:29:14;99358.63;;;16.88;70.83
50368;BME280;36281;34.132;-118.018;2023-04-23T10:31:45;99368.25;;;16.84;70.90
50368;BME280;36281;34.132;-118.018;2023-04-23T10:34:26;99373.06;;;16.77;71.01
50368;BME280;36281;34.132;-118.018;2023-04-23T10:36:56;99370.59;;;16.70;71.21
50368;BME280;36281;34.132;-118.018;2023-04-23T10:39:34;99376.78;;;16.71;71.35
50368;BME280;36281;34.132;-118.018;2023-04-23T10:42:04;99374.09;;;16.71;71.73
50368;BME280;36281;34.132;-118.018;2023-04-23T10:44:36;99379.44;;;16.71;71.72
50368;BME280;36281;34.132;-118.018;2023-04-23T10:47:11;99377.81;;;16.70;71.75
50368;BME280;36281;34.132;-118.018;2023-04-23T10:49:44;99383.44;;;16.68;71.91
50368;BME280;36281;34.132;-118.018;2023-04-23T10:52:14;99381.53;;;16.64;72.17
50368;BME280;36281;34.132;-118.018;2023-04-23T10:54:49;99390.63;;;16.63;72.20
50368;BME280;36281;34.132;-118.018;2023-04-23T10:57:24;99391.72;;;16.62;72.13
50368;BME280;36281;34.132;-118.018;2023-04-23T10:59:54;99395.69;;;16.59;71.89
50368;BME280;36281;34.132;-118.018;2023-04-23T11:02:24;99397.56;;;16.53;72.22
50368;BME280;36281;34.132;-118.018;2023-04-23T11:04:56;99394.34;;;16.51;72.01
50368;BME280;36281;34.132;-118.018;2023-04-23T11:07:30;99387.91;;;16.47;72.62
50368;BME280;36281;34.132;-118.018;2023-04-23T11:10:00;99390.84;;;16.46;72.38
50368;BME280;36281;34.132;-118.018;2023-04-23T11:12:39;99394.84;;;16.43;72.37
50368;BME280;36281;34.132;-118.018;2023-04-23T11:15:12;99401.25;;;16.42;72.33
50368;BME280;36281;34.132;-118.018;2023-04-23T11:18:02;99400.97;;;16.39;72.53
50368;BME280;36281;34.132;-118.018;2023-04-23T11:20:35;99391.53;;;16.21;72.86
50368;BME280;36281;34.132;-118.018;2023-04-23T11:23:05;99407.06;;;16.29;72.66
50368;BME280;36281;34.132;-118.018;2023-04-23T11:25:35;99410.53;;;16.29;72.73
50368;BME280;36281;34.132;-118.018;2023-04-23T11:28:06;99398.75;;;16.20;72.61
50368;BME280;36281;34.132;-118.018;2023-04-23T11:30:36;99410.53;;;16.24;73.04
50368;BME280;36281;34.132;-118.018;2023-04-23T11:33:05;99395.81;;;16.17;73.58
50368;BME280;36281;34.132;-118.018;2023-04-23T11:35:36;99413.44;;;16.18;74.06
50368;BME280;36281;34.132;-118.018;2023-04-23T11:38:08;99412.59;;;16.12;74.48
50368;BME280;36281;34.132;-118.018;2023-04-23T11:40:38;99410.72;;;16.08;75.10
50368;BME280;36281;34.132;-118.018;2023-04-23T11:43:07;99400.81;;;16.03;75.30
50368;BME280;36281;34.132;-118.018;2023-04-23T11:45:37;99406.44;;;16.07;75.74
50368;BME280;36281;34.132;-118.018;2023-04-23T11:48:06;99416.06;;;16.08;75.76
50368;BME280;36281;34.132;-118.018;2023-04-23T11:50:37;99412.31;;;16.09;76.27
50368;BME280;36281;34.132;-118.018;2023-04-23T11:53:10;99413.38;;;16.08;76.35
50368;BME280;36281;34.132;-118.018;2023-04-23T11:55:39;99417.34;;;16.05;76.64
50368;BME280;36281;34.132;-118.018;2023-04-23T11:58:11;99420.84;;;16.06;76.81
50368;BME280;36281;34.132;-118.018;2023-04-23T12:00:45;99427.81;;;16.07;76.67
50368;BME280;36281;34.132;-118.018;2023-04-23T12:03:14;99427.25;;;16.05;76.71
50368;BME280;36281;34.132;-118.018;2023-04-23T12:05:45;99419.50;;;16.03;76.53
50368;BME280;36281;34.132;-118.018;2023-04-23T12:08:16;99417.91;;;16.02;76.82
50368;BME280;36281;34.132;-118.018;2023-04-23T12:10:47;99413.84;;;15.99;77.07
50368;BME280;36281;34.132;-118.018;2023-04-23T12:13:18;99408.50;;;15.99;77.50
50368;BME280;36281;34.132;-118.018;2023-04-23T12:15:48;99418.09;;;15.95;78.10
50368;BME280;36281;34.132;-118.018;2023-04-23T12:18:18;99406.84;;;15.88;78.44
50368;BME280;36281;34.132;-118.018;2023-04-23T12:20:48;99415.91;;;15.82;78.39
50368;BME280;36281;34.132;-118.018;2023-04-23T12:23:18;99418.31;;;15.84;78.45
50368;BME280;36281;34.132;-118.018;2023-04-23T12:25:53;99415.91;;;15.82;78.69
50368;BME280;36281;34.132;-118.018;2023-04-23T12:28:23;99424.72;;;15.83;78.48
50368;BME280;36281;34.132;-118.018;2023-04-23T12:30:52;99422.28;;;15.81;78.64
50368;BME280;36281;34.132;-118.018;2023-04-23T12:33:21;99419.06;;;15.79;78.71
50368;BME280;36281;34.132;-118.018;2023-04-23T12:35:52;99418.81;;;15.81;79.02
50368;BME280;36281;34.132;-118.018;2023-04-23T12:38:22;99416.66;;;15.77;79.10
50368;BME280;36281;34.132;-118.018;2023-04-23T12:40:52;99413.97;;;15.72;79.30
50368;BME280;36281;34.132;-118.018;2023-04-23T12:43:21;99419.00;;;15.69;79.47
50368;BME280;36281;34.132;-118.018;2023-04-23T12:45:50;99419.16;;;15.57;79.56
50368;BME280;36281;34.132;-118.018;2023-04-23T12:48:20;99415.16;;;15.60;79.50